Time;durP1;ratioP1;P1;durP2;ratioP2;P2;SDS_P1;SDS_P2;PMS_P1;PMS_P2;Temp;Humidity;BMP_temperature;BMP_pressure;BME280_temperature;BME280_humidity;BME280_pressure;Samples;Min_cycle;Max_cycle;Signal;HPM_P1;HPM_P2
2023/08/30 00:00:08;;;;;;;1.20;1.20;;;15.90;99.90;;;;;;4177118;28;20048;-62
2023/08/30 00:02:28;;;;;;;3.10;1.20;;;15.90;99.90;;;;;;4179942;28;20080;-62
2023/08/30 00:04:49;;;;;;;1.63;1.27;;;15.80;99.90;;;;;;4179467;28;20044;-62
2023/08/30 00:07:10;;;;;;;2.78;1.45;;;15.80;99.90;;;;;;4185375;28;20109;-62
2023/08/30 00:09:30;;;;;;;8.40;1.63;;;15.80;99.90;;;;;;4177455;28;20056;-62
2023/08/30 00:11:50;;;;;;;5.85;1.00;;;15.80;99.90;;;;;;4180474;28;20227;-62
2023/08/30 00:14:10;;;;;;;1.40;1.00;;;15.80;99.90;;;;;;4180218;28;20151;-62
2023/08/30 00:16:30;;;;;;;1.38;1.27;;;15.80;99.90;;;;;;4183298;28;20036;-62
2023/08/30 00:18:50;;;;;;;1.67;1.20;;;15.80;99.90;;;;;;4180668;28;20060;-62
2023/08/30 00:21:09;;;;;;;1.02;1.02;;;15.70;99.90;;;;;;4175359;28;20052;-62
2023/08/30 00:23:29;;;;;;;0.90;0.90;;;15.70;99.90;;;;;;4186900;28;20044;-62
2023/08/30 00:25:49;;;;;;;3.33;1.80;;;15.60;99.90;;;;;;4178173;28;20264;-63
2023/08/30 00:28:09;;;;;;;3.42;1.10;;;15.60;99.90;;;;;;4180011;28;20082;-62
2023/08/30 00:30:30;;;;;;;0.90;0.90;;;15.60;99.90;;;;;;4181134;28;20271;-62
2023/08/30 00:32:50;;;;;;;0.93;0.90;;;15.50;99.90;;;;;;4178004;28;20045;-62
2023/08/30 00:35:10;;;;;;;0.98;0.95;;;15.50;99.90;;;;;;4177242;28;20252;-63
2023/08/30 00:37:30;;;;;;;2.95;1.67;;;15.50;99.90;;;;;;4179110;28;20105;-63
2023/08/30 00:39:50;;;;;;;2.28;1.00;;;15.50;99.90;;;;;;4176128;28;20088;-63
2023/08/30 00:42:10;;;;;;;2.40;1.00;;;15.50;99.90;;;;;;4179312;28;20091;-63
2023/08/30 00:44:29;;;;;;;1.33;1.30;;;15.40;99.90;;;;;;4176092;28;20113;-63
2023/08/30 00:46:49;;;;;;;1.00;1.00;;;15.40;99.90;;;;;;4180698;28;20240;-63
2023/08/30 00:49:10;;;;;;;1.55;1.00;;;15.40;99.90;;;;;;4184079;28;20104;-63
2023/08/30 00:51:30;;;;;;;3.63;1.15;;;15.40;99.90;;;;;;4174156;28;20068;-63
2023/08/30 00:53:50;;;;;;;1.65;1.00;;;15.40;99.90;;;;;;4182010;28;20140;-63
2023/08/30 00:56:11;;;;;;;3.55;1.00;;;15.40;99.90;;;;;;4178791;28;20055;-63
2023/08/30 00:58:31;;;;;;;2.92;0.93;;;15.40;99.90;;;;;;4175363;28;20052;-63
2023/08/30 01:00:51;;;;;;;4.53;1.10;;;15.30;99.90;;;;;;4179075;28;20091;-63
2023/08/30 01:03:11;;;;;;;3.15;1.00;;;15.30;99.90;;;;;;4215292;22;20067;-64
2023/08/30 01:05:32;;;;;;;3.58;1.30;;;15.40;99.90;;;;;;4205569;28;20056;-64
2023/08/30 01:07:52;;;;;;;1.42;1.10;;;15.40;99.90;;;;;;4205517;28;20043;-64
2023/08/30 01:10:12;;;;;;;3.55;0.90;;;15.30;99.90;;;;;;4205633;28;20054;-63
2023/08/30 01:12:42;;;;;;;2.67;0.90;;;15.30;99.90;;;;;;4205487;28;20071;-63
2023/08/30 01:15:22;;;;;;;1.00;1.00;;;15.30;99.90;;;;;;4204535;28;20331;-64
2023/08/30 01:17:44;;;;;;;2.05;1.10;;;15.20;99.90;;;;;;4204929;28;20380;-63
2023/08/30 01:20:08;;;;;;;1.27;0.90;;;15.20;99.90;;;;;;4205203;28;20090;-64
2023/08/30 01:22:53;;;;;;;1.20;0.98;;;15.20;99.90;;;;;;4205113;28;20101;-61
2023/08/30 01:25:34;;;;;;;5.85;1.10;;;15.20;99.90;;;;;;4205276;28;20039;-61
2023/08/30 01:27:56;;;;;;;1.27;0.90;;;15.20;99.90;;;;;;4205282;28;20102;-61
2023/08/30 01:30:17;;;;;;;1.08;0.93;;;15.20;99.90;;;;;;4205139;28;20131;-61
2023/08/30 01:32:38;;;;;;;2.22;1.10;;;15.20;99.90;;;;;;4205342;28;20060;-61
2023/08/30 01:35:03;;;;;;;0.90;0.90;;;15.20;99.90;;;;;;4204808;28;20150;-61
2023/08/30 01:37:25;;;;;;;3.65;0.95;;;15.20;99.90;;;;;;4205054;28;20036;-61
2023/08/30 01:39:47;;;;;;;3.72;1.25;;;15.30;99.90;;;;;;4204235;28;20048;-61
2023/08/30 01:42:07;;;;;;;4.68;1.08;;;15.20;99.90;;;;;;4179136;28;20083;-61
2023/08/30 01:44:30;;;;;;;1.92;1.00;;;15.20;99.90;;;;;;4180834;28;20113;-61
2023/08/30 01:46:50;;;;;;;6.55;1.20;;;15.20;99.90;;;;;;4183807;28;20451;-61
2023/08/30 01:49:10;;;;;;;1.00;1.00;;;15.20;99.90;;;;;;4185096;28;20053;-61
2023/08/30 01:51:30;;;;;;;1.85;1.00;;;15.20;99.90;;;;;;4181964;28;20406;-61
2023/08/30 01:53:52;;;;;;;1.30;1.30;;;15.20;99.90;;;;;;4179286;28;20119;-61
2023/08/30 01:56:12;;;;;;;1.27;0.98;;;15.30;99.90;;;;;;4181749;28;20043;-61
2023/08/30 01:58:33;;;;;;;1.00;1.00;;;15.30;99.90;;;;;;4182946;28;20167;-61
2023/08/30 02:00:53;;;;;;;1.75;1.00;;;15.10;99.90;;;;;;4181057;28;20044;-61
2023/08/30 02:03:14;;;;;;;1.95;1.30;;;15.20;99.90;;;;;;4180232;28;20093;-61
2023/08/30 02:05:39;;;;;;;1.45;1.05;;;15.20;99.90;;;;;;4179106;28;20079;-61
2023/08/30 02:08:29;;;;;;;2.22;1.13;;;15.20;99.90;;;;;;4177944;28;20047;-61
2023/08/30 02:10:55;;;;;;;4.43;1.30;;;15.20;99.90;;;;;;4177551;28;20052;-62
2023/08/30 02:13:17;;;;;;;2.58;1.10;;;15.10;99.90;;;;;;4182243;28;20057;-61
2023/08/30 02:15:39;;;;;;;1.00;1.00;;;15.10;99.90;;;;;;4180732;28;20108;-61
2023/08/30 02:18:00;;;;;;;2.17;1.10;;;15.20;99.90;;;;;;4189147;28;20063;-61
2023/08/30 02:20:20;;;;;;;1.08;1.08;;;15.20;99.90;;;;;;4179131;28;20087;-61
2023/08/30 02:22:40;;;;;;;3.33;1.05;;;15.10;99.90;;;;;;4180427;28;20056;-61
2023/08/30 02:25:04;;;;;;;1.92;1.00;;;15.10;99.90;;;;;;4178707;28;20049;-61
2023/08/30 02:27:24;;;;;;;1.80;1.08;;;15.10;99.90;;;;;;4176178;28;20072;-61
2023/08/30 02:29:44;;;;;;;2.72;1.00;;;15.10;99.90;;;;;;4179629;28;20274;-61
2023/08/30 02:32:03;;;;;;;5.18;1.10;;;15.10;99.90;;;;;;4178666;28;20041;-61
2023/08/30 02:34:23;;;;;;;1.98;1.15;;;15.10;99.90;;;;;;4180869;28;20056;-61
2023/08/30 02:36:43;;;;;;;3.10;1.00;;;15.10;99.90;;;;;;4182314;28;20036;-61
2023/08/30 02:39:04;;;;;;;3.58;1.00;;;15.10;99.90;;;;;;4181654;28;20382;-61
2023/08/30 02:41:24;;;;;;;6.53;1.73;;;15.20;99.90;;;;;;4176757;28;20056;-61
2023/08/30 02:43:44;;;;;;;2.35;1.30;;;15.20;99.90;;;;;;4178377;28;20056;-61
2023/08/30 02:46:05;;;;;;;1.20;1.10;;;15.20;99.90;;;;;;4184986;28;20069;-61
2023/08/30 02:48:25;;;;;;;1.00;1.00;;;15.10;99.90;;;;;;4180928;28;20059;-61
2023/08/30 02:50:44;;;;;;;1.98;1.35;;;15.20;99.90;;;;;;4184661;28;20040;-61
2023/08/30 02:53:04;;;;;;;1.20;1.20;;;15.10;99.90;;;;;;4181186;28;20369;-61
2023/08/30 02:55:24;;;;;;;1.00;1.00;;;15.10;99.90;;;;;;4183752;28;20071;-61
2023/08/30 02:57:46;;;;;;;1.35;1.25;;;15.10;99.90;;;;;;4180676;28;20218;-61
2023/08/30 03:00:06;;;;;;;4.88;1.85;;;15.00;99.90;;;;;;4179353;28;20064;-61
2023/08/30 03:02:26;;;;;;;2.95;0.90;;;15.00;99.90;;;;;;4182184;28;20353;-61
2023/08/30 03:04:46;;;;;;;3.70;1.00;;;15.00;99.90;;;;;;4178707;28;20051;-61
2023/08/30 03:07:06;;;;;;;1.55;1.17;;;15.10;99.90;;;;;;4176509;28;20236;-61
2023/08/30 03:09:26;;;;;;;2.55;0.90;;;15.00;99.90;;;;;;4177735;28;20052;-61
2023/08/30 03:11:46;;;;;;;2.30;0.95;;;15.00;99.90;;;;;;4183365;28;20036;-61
2023/08/30 03:14:05;;;;;;;0.93;0.93;;;14.90;99.90;;;;;;4181507;28;20048;-61
2023/08/30 03:16:26;;;;;;;2.35;1.00;;;14.90;99.90;;;;;;4182890;28;20043;-61
2023/08/30 03:18:46;;;;;;;1.00;1.00;;;14.90;99.90;;;;;;4184580;28;20043;-61
2023/08/30 03:21:07;;;;;;;1.10;1.00;;;15.00;99.90;;;;;;4182633;28;20060;-61
2023/08/30 03:23:26;;;;;;;3.65;1.00;;;15.00;99.90;;;;;;4177004;28;20088;-61
2023/08/30 03:25:47;;;;;;;1.00;1.00;;;15.00;99.90;;;;;;4180363;28;20056;-61
2023/08/30 03:28:06;;;;;;;1.00;1.00;;;15.00;99.90;;;;;;4179325;28;20084;-61
2023/08/30 03:30:27;;;;;;;5.13;1.00;;;14.90;99.90;;;;;;4178711;28;20091;-61
2023/08/30 03:32:46;;;;;;;3.53;1.13;;;14.80;99.90;;;;;;4182052;28;20048;-61
2023/08/30 03:35:08;;;;;;;2.15;1.10;;;14.80;99.90;;;;;;4176443;28;20056;-61
2023/08/30 03:37:28;;;;;;;7.75;1.00;;;14.80;99.90;;;;;;4177121;28;20386;-61
2023/08/30 03:39:48;;;;;;;3.53;1.08;;;14.90;99.90;;;;;;4183832;28;20131;-61
2023/08/30 03:42:08;;;;;;;1.92;0.93;;;15.00;99.90;;;;;;4182786;28;20080;-61
2023/08/30 03:44:28;;;;;;;4.13;1.00;;;15.00;99.90;;;;;;4177606;28;20232;-61
2023/08/30 03:46:48;;;;;;;1.00;1.00;;;15.10;99.90;;;;;;4178384;28;20056;-61
2023/08/30 03:49:08;;;;;;;1.80;1.00;;;15.00;99.90;;;;;;4180482;28;20108;-61
2023/08/30 03:51:28;;;;;;;3.50;1.10;;;15.00;99.90;;;;;;4179910;28;20056;-61
2023/08/30 03:53:48;;;;;;;1.02;0.90;;;15.00;99.90;;;;;;4185912;28;20063;-61
2023/08/30 03:56:07;;;;;;;7.32;1.42;;;15.00;99.90;;;;;;4183422;28;20386;-61
2023/08/30 03:58:27;;;;;;;2.05;0.90;;;15.10;99.90;;;;;;4181917;28;20366;-60
2023/08/30 04:00:47;;;;;;;1.05;0.90;;;15.00;99.90;;;;;;4183412;28;20293;-61
2023/08/30 04:03:11;;;;;;;1.58;1.13;;;14.90;99.90;;;;;;4177669;28;20363;-61
2023/08/30 04:05:34;;;;;;;1.00;1.00;;;15.10;99.90;;;;;;4177377;28;20397;-62
2023/08/30 04:07:54;;;;;;;1.00;1.00;;;15.00;99.90;;;;;;4180915;28;20052;-61
2023/08/30 04:10:14;;;;;;;9.35;1.77;;;14.90;99.90;;;;;;4185723;28;20047;-60
2023/08/30 04:12:35;;;;;;;3.63;1.98;;;14.90;99.90;;;;;;4180095;28;20036;-62
2023/08/30 04:14:55;;;;;;;2.00;1.00;;;14.90;99.90;;;;;;4175668;28;20052;-60
2023/08/30 04:17:15;;;;;;;1.48;1.20;;;14.90;99.90;;;;;;4181560;28;20383;-61
2023/08/30 04:19:34;;;;;;;1.20;1.20;;;14.90;99.90;;;;;;4177205;28;20087;-61
2023/08/30 04:21:55;;;;;;;3.72;1.10;;;14.90;99.90;;;;;;4178957;28;20439;-61
2023/08/30 04:24:15;;;;;;;1.20;1.10;;;14.90;99.90;;;;;;4179202;28;20141;-61
2023/08/30 04:26:35;;;;;;;1.88;1.73;;;14.90;99.90;;;;;;4176693;28;20062;-61
2023/08/30 04:28:55;;;;;;;1.02;1.02;;;14.90;99.90;;;;;;4176033;28;20086;-61
2023/08/30 04:31:15;;;;;;;2.45;1.52;;;14.90;99.90;;;;;;4177443;28;20083;-61
2023/08/30 04:33:35;;;;;;;1.40;1.30;;;14.90;99.90;;;;;;4182690;28;20048;-61
2023/08/30 04:35:56;;;;;;;1.23;1.23;;;14.90;99.90;;;;;;4179260;28;20084;-61
2023/08/30 04:38:16;;;;;;;1.58;1.08;;;14.90;99.90;;;;;;4182329;28;20047;-61
2023/08/30 04:40:36;;;;;;;3.53;1.20;;;14.90;99.90;;;;;;4178833;28;20091;-61
2023/08/30 04:42:58;;;;;;;1.08;1.08;;;14.90;99.90;;;;;;4177305;28;20154;-61
2023/08/30 04:45:18;;;;;;;2.70;1.58;;;15.00;99.90;;;;;;4182776;28;20118;-61
2023/08/30 04:47:38;;;;;;;1.33;1.20;;;15.00;99.90;;;;;;4175433;28;20087;-61
2023/08/30 04:49:58;;;;;;;4.78;1.10;;;15.00;99.90;;;;;;4181191;28;20057;-61
2023/08/30 04:52:18;;;;;;;2.92;1.10;;;15.00;99.90;;;;;;4181005;28;20079;-61
2023/08/30 04:54:39;;;;;;;2.72;1.10;;;14.90;99.90;;;;;;4178642;28;20083;-61
2023/08/30 04:56:59;;;;;;;1.95;1.30;;;14.90;99.90;;;;;;4177561;28;20035;-62
2023/08/30 04:59:19;;;;;;;1.52;1.10;;;15.00;99.90;;;;;;4180191;28;20119;-62
2023/08/30 05:01:44;;;;;;;1.02;1.02;;;15.00;99.90;;;;;;4182468;28;20060;-62
2023/08/30 05:04:05;;;;;;;4.00;1.20;;;15.00;99.90;;;;;;4176970;28;20364;-62
2023/08/30 05:06:26;;;;;;;1.63;1.13;;;15.00;99.90;;;;;;4176748;28;20094;-62
2023/08/30 05:08:45;;;;;;;2.88;1.02;;;15.10;99.90;;;;;;4182194;28;20240;-62
2023/08/30 05:11:06;;;;;;;7.63;1.67;;;15.20;99.90;;;;;;4176558;28;20387;-62
2023/08/30 05:13:26;;;;;;;1.00;1.00;;;15.20;99.90;;;;;;4180927;28;20048;-62
2023/08/30 05:15:45;;;;;;;1.77;1.05;;;15.30;99.90;;;;;;4180390;28;20057;-62
2023/08/30 05:18:05;;;;;;;3.60;1.52;;;15.20;99.90;;;;;;4181913;28;20127;-62
2023/08/30 05:20:25;;;;;;;1.45;1.10;;;15.30;99.90;;;;;;4176837;28;20052;-62
2023/08/30 05:22:45;;;;;;;4.90;1.48;;;15.30;99.90;;;;;;4182443;28;20084;-62
2023/08/30 05:25:06;;;;;;;3.13;1.45;;;15.40;99.90;;;;;;4182293;28;20056;-62
2023/08/30 05:27:26;;;;;;;3.60;1.35;;;15.50;99.90;;;;;;4178962;28;20084;-62
2023/08/30 05:29:45;;;;;;;2.80;1.17;;;15.50;99.90;;;;;;4180523;28;20063;-62
2023/08/30 05:32:05;;;;;;;3.53;1.02;;;15.50;99.90;;;;;;4184258;28;20052;-62
2023/08/30 05:34:26;;;;;;;2.13;1.30;;;15.60;99.90;;;;;;4179637;28;20080;-62
2023/08/30 05:36:46;;;;;;;1.58;1.10;;;15.50;99.90;;;;;;4176906;28;20116;-62
2023/08/30 05:39:06;;;;;;;3.50;1.10;;;15.50;99.90;;;;;;4182408;28;20163;-62
2023/08/30 05:41:26;;;;;;;2.35;0.95;;;15.60;99.90;;;;;;4185346;28;20079;-62
2023/08/30 05:43:46;;;;;;;2.13;1.00;;;15.60;99.90;;;;;;4175111;28;20049;-62
2023/08/30 05:46:12;;;;;;;1.95;1.00;;;15.50;99.90;;;;;;4178339;28;20103;-62
2023/08/30 05:48:33;;;;;;;1.48;1.48;;;15.60;99.90;;;;;;4179111;28;20087;-62
2023/08/30 05:50:52;;;;;;;1.63;1.20;;;15.70;99.90;;;;;;4182080;28;20104;-62
2023/08/30 05:53:13;;;;;;;6.35;1.50;;;15.70;99.90;;;;;;4180125;28;20076;-62
2023/08/30 05:55:33;;;;;;;2.35;1.10;;;15.70;99.90;;;;;;4181997;28;20096;-62
2023/08/30 05:57:53;;;;;;;3.50;1.20;;;15.80;99.90;;;;;;4183370;28;20056;-62
2023/08/30 06:00:13;;;;;;;3.63;1.20;;;15.80;99.90;;;;;;4182898;28;20122;-62
2023/08/30 06:02:33;;;;;;;1.73;1.20;;;15.90;99.90;;;;;;4180507;28;20810;-62
2023/08/30 06:04:54;;;;;;;1.88;1.27;;;16.00;99.90;;;;;;4179911;28;20108;-62
2023/08/30 06:07:14;;;;;;;3.58;1.58;;;16.10;99.90;;;;;;4180674;28;20036;-62
2023/08/30 06:09:34;;;;;;;2.45;2.10;;;16.20;99.90;;;;;;4184012;28;20083;-62
2023/08/30 06:11:54;;;;;;;1.52;1.52;;;16.20;99.90;;;;;;4174685;28;20040;-62
2023/08/30 06:14:14;;;;;;;3.40;1.85;;;16.20;99.90;;;;;;4192882;28;20083;-62
2023/08/30 06:16:34;;;;;;;2.05;1.95;;;16.20;99.90;;;;;;4178990;28;20147;-62
2023/08/30 06:18:54;;;;;;;2.65;1.77;;;16.10;99.90;;;;;;4186518;28;20075;-62
2023/08/30 06:21:14;;;;;;;1.70;1.67;;;16.10;99.90;;;;;;4181992;28;20071;-62
2023/08/30 06:23:37;;;;;;;1.83;1.60;;;16.10;99.90;;;;;;4181651;28;20060;-62
2023/08/30 06:25:57;;;;;;;1.90;1.90;;;16.20;99.90;;;;;;4178054;28;20125;-62
2023/08/30 06:28:17;;;;;;;1.90;1.80;;;16.30;99.90;;;;;;4177538;28;20283;-62
2023/08/30 06:30:37;;;;;;;3.80;2.58;;;16.20;99.90;;;;;;4180091;28;20115;-61
2023/08/30 06:32:57;;;;;;;2.40;2.15;;;16.20;99.90;;;;;;4183416;28;20048;-61
2023/08/30 06:35:17;;;;;;;3.03;2.03;;;16.30;99.90;;;;;;4183027;28;20052;-61
2023/08/30 06:37:37;;;;;;;2.60;2.38;;;16.40;99.90;;;;;;4174452;28;20103;-61
2023/08/30 06:39:57;;;;;;;2.55;2.30;;;16.50;99.90;;;;;;4176471;28;20056;-61
2023/08/30 06:42:17;;;;;;;3.22;2.72;;;16.60;99.90;;;;;;4185549;28;20056;-61
2023/08/30 06:44:37;;;;;;;3.75;3.50;;;16.70;99.90;;;;;;4181409;28;20233;-61
2023/08/30 06:46:57;;;;;;;2.15;2.05;;;16.60;99.90;;;;;;4183869;28;20043;-61
2023/08/30 06:49:19;;;;;;;3.30;3.10;;;16.60;99.90;;;;;;4178951;28;20247;-61
2023/08/30 06:51:38;;;;;;;4.20;2.67;;;16.60;99.90;;;;;;4183444;28;20075;-61
2023/08/30 06:54:00;;;;;;;2.75;2.55;;;16.50;99.90;;;;;;4183443;28;20248;-61
2023/08/30 06:56:20;;;;;;;2.33;2.20;;;16.50;99.90;;;;;;4180731;28;20040;-61
2023/08/30 06:58:40;;;;;;;2.70;2.60;;;16.60;99.90;;;;;;4182664;28;20108;-62
2023/08/30 07:01:00;;;;;;;2.85;2.72;;;16.80;99.90;;;;;;4181999;28;20151;-61
2023/08/30 07:03:20;;;;;;;3.72;2.67;;;17.00;99.90;;;;;;4186535;28;20247;-61
2023/08/30 07:05:40;;;;;;;3.58;2.20;;;17.20;99.90;;;;;;4175321;28;20048;-60
2023/08/30 07:08:00;;;;;;;3.33;2.33;;;17.10;99.90;;;;;;4180617;28;20255;-60
2023/08/30 07:10:20;;;;;;;2.47;2.38;;;17.20;99.90;;;;;;4183713;28;20244;-60
2023/08/30 07:12:40;;;;;;;3.33;2.78;;;17.10;99.90;;;;;;4182238;28;20367;-60
2023/08/30 07:15:00;;;;;;;2.45;2.25;;;17.20;99.90;;;;;;4179827;28;20370;-60
2023/08/30 07:17:20;;;;;;;2.40;2.22;;;17.60;99.90;;;;;;4179996;28;20402;-60
2023/08/30 07:19:40;;;;;;;2.05;1.95;;;17.70;99.90;;;;;;4187631;28;20048;-60
2023/08/30 07:22:00;;;;;;;2.45;2.25;;;17.60;99.90;;;;;;4181767;28;20053;-59
2023/08/30 07:24:22;;;;;;;2.10;2.00;;;17.60;99.90;;;;;;4182219;28;20270;-59
2023/08/30 07:26:42;;;;;;;2.40;1.58;;;17.50;99.90;;;;;;4177110;28;20402;-59
2023/08/30 07:29:06;;;;;;;2.55;1.40;;;17.40;99.90;;;;;;4180332;28;20056;-59
2023/08/30 07:31:26;;;;;;;3.10;2.22;;;17.70;99.90;;;;;;4182507;28;20056;-59
2023/08/30 07:33:47;;;;;;;1.67;1.58;;;18.10;99.90;;;;;;4186580;28;20083;-59
2023/08/30 07:36:08;;;;;;;3.47;1.00;;;18.10;99.90;;;;;;4181934;28;20048;-59
2023/08/30 07:38:28;;;;;;;7.53;1.05;;;18.00;99.90;;;;;;4175639;28;20048;-61
2023/08/30 07:40:47;;;;;;;4.65;1.33;;;18.00;99.90;;;;;;4179345;28;20284;-61
2023/08/30 07:43:07;;;;;;;1.00;1.00;;;18.00;99.90;;;;;;4177758;28;20051;-62
2023/08/30 07:45:28;;;;;;;4.20;1.10;;;18.10;99.90;;;;;;4176475;28;20405;-61
2023/08/30 07:47:48;;;;;;;1.00;1.00;;;18.00;99.90;;;;;;4183679;28;20060;-59
2023/08/30 07:50:08;;;;;;;3.17;1.10;;;18.10;99.90;;;;;;4176498;28;20117;-59
2023/08/30 07:52:28;;;;;;;2.03;1.00;;;18.10;99.90;;;;;;4192529;28;20052;-59
2023/08/30 07:55:05;;;;;;;1.02;1.00;;;18.10;99.90;;;;;;4177129;28;20103;-59
2023/08/30 07:57:26;;;;;;;0.90;0.90;;;18.10;99.90;;;;;;4179213;28;20079;-58
2023/08/30 07:59:46;;;;;;;3.22;0.90;;;18.10;99.90;;;;;;4179496;28;20087;-59
2023/08/30 08:02:07;;;;;;;1.00;0.90;;;18.20;99.90;;;;;;4177008;28;20382;-58
2023/08/30 08:04:27;;;;;;;2.47;0.90;;;18.10;99.90;;;;;;4179131;28;20276;-58
2023/08/30 08:06:47;;;;;;;0.95;0.95;;;18.20;99.90;;;;;;4174642;28;20048;-59
2023/08/30 08:09:17;;;;;;;5.30;1.10;;;18.30;99.90;;;;;;4178024;28;20056;-58
2023/08/30 08:11:37;;;;;;;2.40;1.58;;;18.20;99.90;;;;;;4181958;28;20125;-59
2023/08/30 08:13:57;;;;;;;2.75;1.63;;;17.90;99.90;;;;;;4178066;28;20048;-58
2023/08/30 08:16:17;;;;;;;4.32;1.60;;;18.00;99.90;;;;;;4175929;28;20228;-59
2023/08/30 08:18:37;;;;;;;1.00;1.00;;;18.20;99.90;;;;;;4177552;28;20087;-59
2023/08/30 08:20:57;;;;;;;1.20;1.20;;;18.20;99.90;;;;;;4183354;28;20048;-58
2023/08/30 08:23:17;;;;;;;1.10;0.90;;;18.20;99.90;;;;;;4174624;28;20449;-59
2023/08/30 08:25:37;;;;;;;0.80;0.80;;;18.30;99.90;;;;;;4177467;28;20083;-58
2023/08/30 08:27:57;;;;;;;1.75;0.88;;;18.90;99.90;;;;;;4183261;28;20110;-58
2023/08/30 08:30:17;;;;;;;1.70;0.80;;;19.10;99.90;;;;;;4183609;28;20066;-59
2023/08/30 08:32:37;;;;;;;2.25;0.80;;;19.30;99.90;;;;;;4180883;28;20284;-59
2023/08/30 08:34:58;;;;;;;1.30;0.80;;;19.30;99.90;;;;;;4181934;28;20067;-58
2023/08/30 08:37:18;;;;;;;0.80;0.80;;;19.30;99.90;;;;;;4186582;28;20040;-58
2023/08/30 08:39:38;;;;;;;3.17;0.90;;;19.60;99.90;;;;;;4181929;28;20071;-58
2023/08/30 08:42:00;;;;;;;0.80;0.80;;;19.80;99.90;;;;;;4179356;28;20071;-58
2023/08/30 08:44:22;;;;;;;1.45;1.08;;;19.70;99.90;;;;;;4178639;28;20113;-58
2023/08/30 08:46:42;;;;;;;1.42;0.80;;;19.60;99.90;;;;;;4177933;28;20048;-59
2023/08/30 08:49:13;;;;;;;0.80;0.80;;;19.30;99.90;;;;;;4178454;28;20349;-58
2023/08/30 08:51:34;;;;;;;0.80;0.80;;;19.20;99.90;;;;;;4182224;28;20072;-58
2023/08/30 08:54:02;;;;;;;0.80;0.80;;;19.30;99.90;;;;;;4183454;28;20378;-59
2023/08/30 08:56:22;;;;;;;3.35;0.80;;;19.40;99.90;;;;;;4180216;28;20401;-58
2023/08/30 08:58:43;;;;;;;0.80;0.80;;;19.60;99.90;;;;;;4178576;28;20049;-58
2023/08/30 09:01:05;;;;;;;0.73;0.73;;;20.00;99.90;;;;;;4179358;28;20045;-58
2023/08/30 09:03:25;;;;;;;0.75;0.75;;;20.00;99.90;;;;;;4179536;28;20044;-59
2023/08/30 09:05:46;;;;;;;0.75;0.75;;;20.20;99.90;;;;;;4183896;28;20236;-58
2023/08/30 09:08:06;;;;;;;0.80;0.80;;;20.10;99.90;;;;;;4176464;28;20366;-59
2023/08/30 09:10:26;;;;;;;1.55;0.90;;;20.10;99.90;;;;;;4179276;28;20053;-59
2023/08/30 09:12:46;;;;;;;0.80;0.80;;;20.30;99.90;;;;;;4180021;28;20045;-58
2023/08/30 09:15:06;;;;;;;0.70;0.70;;;20.50;99.90;;;;;;4180955;28;20071;-59
2023/08/30 09:17:37;;;;;;;2.30;0.60;;;20.80;99.90;;;;;;4182420;28;20052;-59
2023/08/30 09:20:09;;;;;;;0.65;0.65;;;20.80;99.90;;;;;;4176431;28;20049;-58
2023/08/30 09:22:39;;;;;;;0.60;0.60;;;20.70;99.90;;;;;;4176792;28;20079;-58
2023/08/30 09:25:00;;;;;;;0.70;0.70;;;20.90;99.90;;;;;;4174825;28;20114;-58
2023/08/30 09:27:20;;;;;;;0.60;0.60;;;20.80;99.90;;;;;;4181855;28;20048;-58
2023/08/30 09:29:43;;;;;;;1.08;0.60;;;20.50;99.90;;;;;;4180956;28;20115;-58
2023/08/30 09:32:08;;;;;;;1.85;1.10;;;20.70;99.90;;;;;;4181422;28;20397;-58
2023/08/30 09:34:27;;;;;;;0.60;0.60;;;21.00;99.90;;;;;;4184482;28;20367;-59
2023/08/30 09:36:50;;;;;;;0.70;0.70;;;20.80;99.90;;;;;;4178443;28;20036;-59
2023/08/30 09:39:14;;;;;;;0.60;0.60;;;20.90;99.90;;;;;;4181941;28;20044;-58
2023/08/30 09:41:34;;;;;;;0.70;0.70;;;21.40;99.90;;;;;;4177066;28;20084;-59
2023/08/30 09:43:54;;;;;;;0.60;0.60;;;21.30;99.90;;;;;;4176335;28;20119;-58
2023/08/30 09:46:31;;;;;;;0.70;0.70;;;21.30;99.90;;;;;;4177527;28;20122;-59
2023/08/30 09:49:12;;;;;;;1.58;0.70;;;21.70;99.90;;;;;;4179655;28;20104;-58
2023/08/30 09:51:34;;;;;;;0.60;0.60;;;21.80;99.90;;;;;;4179702;28;20079;-58
2023/08/30 09:53:59;;;;;;;;;;;21.90;99.90;;;;;;4180872;28;20092;-58
2023/08/30 09:56:26;;;;;;;0.77;0.77;;;21.70;99.90;;;;;;4178619;28;19993;-59
2023/08/30 09:58:47;;;;;;;1.45;0.77;;;21.50;99.90;;;;;;4185304;28;20056;-58
2023/08/30 10:01:08;;;;;;;0.77;0.60;;;21.60;99.90;;;;;;4181168;28;20060;-59
2023/08/30 10:03:30;;;;;;;0.60;0.60;;;21.50;99.90;;;;;;4178469;28;20370;-58
2023/08/30 10:05:54;;;;;;;2.45;0.60;;;21.40;99.90;;;;;;4183817;28;20052;-59
2023/08/30 10:08:14;;;;;;;0.70;0.70;;;21.10;99.90;;;;;;4181105;28;20052;-58
2023/08/30 10:10:35;;;;;;;1.20;0.70;;;21.40;99.90;;;;;;4179388;28;20095;-58
2023/08/30 10:12:56;;;;;;;0.70;0.70;;;21.30;99.90;;;;;;4180239;28;20052;-58
2023/08/30 10:15:33;;;;;;;0.60;0.60;;;21.10;99.90;;;;;;4178881;28;20087;-58
2023/08/30 10:17:56;;;;;;;0.60;0.60;;;21.10;99.90;;;;;;4182111;28;20124;-58
2023/08/30 10:20:16;;;;;;;0.60;0.60;;;21.30;99.90;;;;;;4180089;28;20064;-58
2023/08/30 10:22:38;;;;;;;1.05;0.70;;;21.20;99.90;;;;;;4180206;28;20144;-58
2023/08/30 10:25:05;;;;;;;0.60;0.60;;;21.20;99.90;;;;;;4179229;28;20312;-58
2023/08/30 10:27:33;;;;;;;0.60;0.60;;;21.40;99.90;;;;;;4182723;28;20362;-59
2023/08/30 10:29:54;;;;;;;1.17;0.60;;;21.30;99.90;;;;;;4186131;28;20121;-58
2023/08/30 10:32:22;;;;;;;0.60;0.60;;;21.10;99.90;;;;;;4183527;28;20052;-58
2023/08/30 10:34:49;;;;;;;0.65;0.60;;;21.10;99.90;;;;;;4176514;28;20052;-58
2023/08/30 10:37:11;;;;;;;0.60;0.60;;;20.90;99.90;;;;;;4182273;28;20045;-58
2023/08/30 10:39:39;;;;;;;0.75;0.60;;;20.90;99.90;;;;;;4177604;28;20268;-58
2023/08/30 10:41:59;;;;;;;0.60;0.60;;;21.30;99.90;;;;;;4180241;28;20306;-58
2023/08/30 10:44:21;;;;;;;0.90;0.70;;;21.40;99.90;;;;;;4180386;28;20236;-58
2023/08/30 10:46:41;;;;;;;0.60;0.60;;;21.10;99.90;;;;;;4177724;28;20080;-58
2023/08/30 10:49:14;;;;;;;1.98;0.60;;;21.30;99.90;;;;;;4181282;28;20096;-58
2023/08/30 10:51:36;;;;;;;;;;;21.20;99.90;;;;;;4177963;28;20145;-57
2023/08/30 10:53:58;;;;;;;1.63;0.60;;;21.10;99.90;;;;;;4180734;28;19924;-58
2023/08/30 10:56:26;;;;;;;1.77;0.60;;;21.40;99.90;;;;;;4186173;28;20044;-59
2023/08/30 10:58:46;;;;;;;0.60;0.60;;;21.60;99.90;;;;;;4184521;28;20271;-58
2023/08/30 11:01:12;;;;;;;0.60;0.60;;;21.40;99.90;;;;;;4186378;28;20080;-59
2023/08/30 11:03:33;;;;;;;1.75;0.60;;;21.40;99.90;;;;;;4176029;28;20052;-59
2023/08/30 11:05:56;;;;;;;0.60;0.60;;;21.10;99.90;;;;;;4174079;28;20056;-58
2023/08/30 11:08:16;;;;;;;0.60;0.60;;;21.10;99.90;;;;;;4182583;28;20083;-57
2023/08/30 11:10:36;;;;;;;0.60;0.60;;;21.50;99.90;;;;;;4179765;28;20099;-58
2023/08/30 11:12:56;;;;;;;1.02;0.60;;;21.70;99.90;;;;;;4185331;28;20049;-58
2023/08/30 11:15:16;;;;;;;0.60;0.60;;;21.50;99.90;;;;;;4176762;28;20146;-58
2023/08/30 11:17:36;;;;;;;1.17;0.60;;;21.60;99.90;;;;;;4183233;28;20040;-59
2023/08/30 11:20:11;;;;;;;0.60;0.60;;;21.80;99.90;;;;;;4175678;28;20118;-58
2023/08/30 11:22:31;;;;;;;0.65;0.60;;;21.80;99.90;;;;;;4182058;28;20052;-58
2023/08/30 11:24:51;;;;;;;0.50;0.50;;;22.00;99.90;;;;;;4180946;28;20052;-58
2023/08/30 11:27:11;;;;;;;0.60;0.60;;;22.30;99.90;;;;;;4176722;28;20087;-58
2023/08/30 11:29:31;;;;;;;1.10;0.60;;;22.50;99.90;;;;;;4181684;28;20086;-58
2023/08/30 11:31:51;;;;;;;0.57;0.57;;;22.60;99.90;;;;;;4184925;28;20070;-58
2023/08/30 11:34:11;;;;;;;3.80;0.60;;;22.60;99.90;;;;;;4182807;28;20087;-59
2023/08/30 11:36:34;;;;;;;0.57;0.57;;;23.30;99.90;;;;;;4181318;28;20060;-59
2023/08/30 11:38:55;;;;;;;0.50;0.50;;;23.80;99.90;;;;;;4180416;28;20056;-58
2023/08/30 11:41:15;;;;;;;0.75;0.50;;;23.40;99.90;;;;;;4179952;28;20082;-58
2023/08/30 11:43:35;;;;;;;0.50;0.50;;;23.30;99.90;;;;;;4176169;28;20056;-59
2023/08/30 11:45:58;;;;;;;0.50;0.50;;;23.80;99.20;;;;;;4181536;28;20044;-58
2023/08/30 11:48:18;;;;;;;0.50;0.50;;;23.30;97.50;;;;;;4178750;28;20088;-58
2023/08/30 11:50:39;;;;;;;1.20;0.50;;;23.20;97.60;;;;;;4182635;28;20083;-58
2023/08/30 11:53:09;;;;;;;0.63;0.50;;;23.60;98.50;;;;;;4178015;28;20044;-58
2023/08/30 11:55:29;;;;;;;0.52;0.52;;;23.60;99.70;;;;;;4178429;28;20051;-58
2023/08/30 11:57:50;;;;;;;0.63;0.50;;;23.30;99.90;;;;;;4181098;28;20134;-59
2023/08/30 12:00:13;;;;;;;0.50;0.50;;;22.90;99.40;;;;;;4178091;28;20048;-59
2023/08/30 12:02:35;;;;;;;1.17;0.50;;;23.20;99.10;;;;;;4176343;28;20045;-58
2023/08/30 12:04:55;;;;;;;0.50;0.50;;;23.60;98.90;;;;;;4175351;28;20267;-58
2023/08/30 12:07:23;;;;;;;1.65;0.70;;;23.60;97.80;;;;;;4177039;28;20321;-58
2023/08/30 12:09:43;;;;;;;0.50;0.50;;;23.30;99.40;;;;;;4180040;28;20374;-58
2023/08/30 12:12:10;;;;;;;0.50;0.50;;;22.80;99.30;;;;;;4181228;28;20101;-58
2023/08/30 12:14:34;;;;;;;0.50;0.50;;;22.30;98.70;;;;;;4182365;28;20393;-58
2023/08/30 12:16:59;;;;;;;1.20;0.50;;;22.10;99.20;;;;;;4183681;28;20044;-58